13:06
Airports
History
Links
Donate
Help keep this website running!
PayPal
Bitcoin
Information on this page is community maintained and may be outdated or inaccurate and is intended for reference only or PC simulator navigating!
Always use approved charts for navigating.
SDZY
Regional da Zona da Mata
Regional da Zona da Mata (SDZY)
Juiz de Fora, Minas Gerais, Brazil (36152)
(U)
Lat/Lng:21° 30' 47" S / 43° 10' 23" W
-21.513056 / -43.173056
Elevation:1348'ft 411mMSL
ID / ICAO:SDZY
Runways:1
Longest:(08-26) 2,558.9m 8,395ft Asphalt
Distance To
Airport ID:
Nearby WeatherUpdated 03-26-17 12:00 GMT
Nearby weather at SBJF, FRANCISCO DE ASSIS located 23.6 nautical miles from SDZY
Altimeter: 30.09
Visibility: 5.0 statute miles
Wind: 3 knots (210°)
Temp: 20°c 68°f
Humidity: 82.9%

METAR: SBJF 261200Z 21003KT 8000 1500S BCFG FEW009 20/17 Q1019

(Powered by phpweather)
Runway 08 / 26
Dimensions:2558.9 x 45.1m 8395' x 148'ft
Surface:Asphalt
Edge Lights:Medium intensity
Runway 08 [A]Runway 26 [B]
Heading:055°TH 235°TH
Lat:
Lng:
21° 31' 10.23"S
43° 10' 59.77"W
21° 30' 23.77"S
43° 9' 46.23"W
Google Map
Nearby Airports
(U) Regional da Zona da Mata 0.0 NM
SBZM N
4 Sao Joao Nepomuceno 10.0 NM
SNNE E 101°
4 Faz do Rochedo 23.0 NM
SNJL S 182°
(C) FRANCISCO DE ASSIS 23.6 NM
SBJF (WX) SW 215°
(C) Leopoldina 28.9 NM
SNDN E 83°
(C) Uba 32.9 NM
SNUB NE 34°
(C) MAJOR BRIGADEIRO DOORGAL BORGES 41.5 NM
SBBQ (WX) WNW 294°
VFR Chart
Flight Planning at SkyVector.com